Time;durP1;ratioP1;P1;durP2;ratioP2;P2;SDS_P1;SDS_P2;PMS_P1;PMS_P2;Temp;Humidity;BMP_temperature;BMP_pressure;BME280_temperature;BME280_humidity;BME280_pressure;Samples;Min_cycle;Max_cycle;Signal;HPM_P1;HPM_P2
2022/01/08 00:00:28;;;;;;;5.35;1.98;;;2.00;99.90;;;;;;5007684;28;20092;-73
2022/01/08 00:02:54;;;;;;;5.35;2.70;;;2.00;99.90;;;;;;5007605;28;20034;-72
2022/01/08 00:05:20;;;;;;;4.38;1.90;;;2.10;99.90;;;;;;5007664;28;20038;-73
2022/01/08 00:07:47;;;;;;;10.98;2.63;;;2.10;99.90;;;;;;5007829;28;20053;-74
2022/01/08 00:10:14;;;;;;;6.85;3.35;;;1.90;99.90;;;;;;5007460;28;20026;-73
2022/01/08 00:12:39;;;;;;;5.60;2.53;;;1.90;99.90;;;;;;5007588;28;20119;-73
2022/01/08 00:15:07;;;;;;;7.95;2.40;;;1.90;99.90;;;;;;5007613;28;20060;-72
2022/01/08 00:17:34;;;;;;;5.65;2.17;;;1.90;99.90;;;;;;5007103;28;20055;-73
2022/01/08 00:19:59;;;;;;;9.57;2.53;;;1.80;99.90;;;;;;5008194;28;20045;-73
2022/01/08 00:22:25;;;;;;;5.85;2.53;;;1.80;99.90;;;;;;5028655;28;20022;-72
2022/01/08 00:24:53;;;;;;;7.75;3.28;;;1.80;99.90;;;;;;5018508;28;20030;-73
2022/01/08 00:27:20;;;;;;;7.00;2.53;;;1.80;99.90;;;;;;5018475;28;20526;-72
2022/01/08 00:29:46;;;;;;;5.45;2.67;;;1.80;99.90;;;;;;5007294;28;20514;-74
2022/01/08 00:32:13;;;;;;;9.45;2.60;;;1.70;99.90;;;;;;5005450;28;20035;-73
2022/01/08 00:34:39;;;;;;;4.13;2.17;;;1.70;99.90;;;;;;5007140;28;20043;-73
2022/01/08 00:37:06;;;;;;;8.88;2.53;;;1.80;99.90;;;;;;5006835;28;20026;-73
2022/01/08 00:39:32;;;;;;;5.15;2.90;;;1.80;99.90;;;;;;5006699;28;20014;-73
2022/01/08 00:41:58;;;;;;;4.70;2.53;;;1.80;99.90;;;;;;5007027;28;20022;-72
2022/01/08 00:44:23;;;;;;;5.97;2.58;;;1.80;99.90;;;;;;5006437;28;20040;-73
2022/01/08 00:46:49;;;;;;;6.35;2.80;;;1.90;99.90;;;;;;5006958;28;20033;-74
2022/01/08 00:49:15;;;;;;;6.20;2.45;;;1.90;99.90;;;;;;5006609;28;20058;-73
2022/01/08 00:51:42;;;;;;;6.18;2.63;;;1.90;99.90;;;;;;5006303;28;20050;-74
2022/01/08 00:54:07;;;;;;;7.53;3.10;;;1.90;99.90;;;;;;5006705;28;20034;-72
2022/01/08 00:56:33;;;;;;;6.72;2.70;;;1.90;99.90;;;;;;5006593;28;20026;-73
2022/01/08 00:58:59;;;;;;;7.85;2.72;;;1.90;99.90;;;;;;5004784;28;20050;-73
2022/01/08 01:01:24;;;;;;;8.13;3.20;;;1.90;99.90;;;;;;5005492;28;20022;-73
2022/01/08 01:03:50;;;;;;;6.70;3.33;;;1.90;99.90;;;;;;5006527;28;20446;-73
2022/01/08 01:06:16;;;;;;;7.97;2.72;;;1.90;99.90;;;;;;5006158;28;20031;-73
2022/01/08 01:08:41;;;;;;;7.57;3.88;;;1.90;99.90;;;;;;5006853;28;20026;-74
2022/01/08 01:11:07;;;;;;;7.60;3.25;;;2.00;99.90;;;;;;5006336;28;20101;-73
2022/01/08 01:13:33;;;;;;;10.15;3.45;;;2.00;99.90;;;;;;5005847;28;20033;-73
2022/01/08 01:15:58;;;;;;;6.97;3.65;;;2.00;99.90;;;;;;5006291;28;20571;-73
2022/01/08 01:18:24;;;;;;;10.50;3.67;;;2.00;99.90;;;;;;5006030;28;20030;-73
2022/01/08 01:20:50;;;;;;;7.07;3.55;;;2.00;99.90;;;;;;5004529;28;20031;-74
2022/01/08 01:23:27;;;;;;;6.90;3.60;;;2.00;99.90;;;;;;5006063;28;20379;-73
2022/01/08 01:25:58;;;;;;;12.60;4.28;;;2.00;99.90;;;;;;5004525;28;20022;-73
2022/01/08 01:41:05;;;;;;;13.10;3.38;;;2.00;99.90;;;;;;5006119;28;20042;-72
2022/01/08 01:47:19;;;;;;;12.70;4.65;;;2.00;99.90;;;;;;5005632;28;20145;-73
2022/01/08 01:49:47;;;;;;;10.63;5.00;;;2.00;99.90;;;;;;5005669;28;20022;-73
2022/01/08 01:52:17;;;;;;;11.10;3.75;;;2.00;99.90;;;;;;5005638;28;20105;-73
2022/01/08 01:54:44;;;;;;;10.43;4.53;;;2.00;99.90;;;;;;5005346;28;20022;-73
2022/01/08 01:57:13;;;;;;;13.10;4.95;;;2.00;99.90;;;;;;5005724;28;20034;-72
2022/01/08 01:59:40;;;;;;;16.90;6.82;;;2.00;99.90;;;;;;5004082;28;20294;-73
2022/01/08 02:02:06;;;;;;;15.75;4.95;;;2.10;99.90;;;;;;5005002;28;20106;-73
2022/01/08 02:04:32;;;;;;;9.25;4.90;;;2.10;99.90;;;;;;5005385;28;20066;-72
2022/01/08 02:06:58;;;;;;;9.98;4.15;;;2.10;99.90;;;;;;5003792;28;20033;-73
2022/01/08 02:09:24;;;;;;;15.00;4.65;;;2.10;99.90;;;;;;5005292;28;20026;-73
2022/01/08 02:12:16;;;;;;;14.07;5.70;;;2.10;99.90;;;;;;5005186;28;20046;-73
2022/01/08 02:14:45;;;;;;;13.45;4.28;;;2.10;99.90;;;;;;5005196;28;20061;-73
2022/01/08 02:17:12;;;;;;;10.68;4.63;;;2.20;99.90;;;;;;5004917;28;20403;-73
2022/01/08 02:19:38;;;;;;;12.07;5.15;;;2.20;99.90;;;;;;5005169;28;20065;-72
2022/01/08 02:22:05;;;;;;;12.60;4.55;;;2.10;99.90;;;;;;5004693;28;20446;-72
2022/01/08 02:24:32;;;;;;;16.23;5.60;;;2.20;99.90;;;;;;5004350;28;20047;-72
2022/01/08 02:26:57;;;;;;;11.40;5.10;;;2.10;99.90;;;;;;5005097;28;20035;-72
2022/01/08 02:29:25;;;;;;;12.65;4.95;;;2.20;99.90;;;;;;5004649;28;20030;-73
2022/01/08 02:32:03;;;;;;;15.20;4.68;;;2.20;99.90;;;;;;5005149;28;20031;-72
2022/01/08 02:34:29;;;;;;;9.18;3.97;;;2.20;99.90;;;;;;5004736;28;20034;-74
2022/01/08 02:36:56;;;;;;;9.50;3.53;;;2.10;99.90;;;;;;5003685;28;20157;-73
2022/01/08 02:39:22;;;;;;;10.48;4.70;;;2.10;99.90;;;;;;5003611;28;20489;-73
2022/01/08 02:41:53;;;;;;;9.73;4.25;;;2.20;99.90;;;;;;5004648;28;20026;-72
2022/01/08 02:44:19;;;;;;;13.90;5.85;;;2.20;99.90;;;;;;5004905;28;20038;-73
2022/01/08 02:46:45;;;;;;;10.68;4.53;;;2.20;99.90;;;;;;5005068;28;20053;-74
2022/01/08 02:49:12;;;;;;;9.60;4.15;;;2.20;99.90;;;;;;5004963;28;20041;-74
2022/01/08 02:51:38;;;;;;;11.82;4.07;;;2.20;99.90;;;;;;5004947;28;20055;-73
2022/01/08 02:54:08;;;;;;;8.48;3.95;;;2.20;99.90;;;;;;5004718;28;20118;-72
2022/01/08 02:56:41;;;;;;;10.07;4.13;;;2.30;99.90;;;;;;5014012;28;20018;-74
2022/01/08 02:59:07;;;;;;;11.85;4.45;;;2.20;99.90;;;;;;5024862;28;20430;-73
2022/01/08 03:01:33;;;;;;;10.93;4.53;;;2.10;99.90;;;;;;5023235;28;20018;-73
2022/01/08 03:03:59;;;;;;;7.10;3.42;;;2.10;99.90;;;;;;5022899;28;20060;-73
2022/01/08 03:06:24;;;;;;;13.23;4.75;;;2.10;99.90;;;;;;5014189;28;20268;-73
2022/01/08 03:08:50;;;;;;;11.57;4.47;;;2.00;99.90;;;;;;5003257;28;20038;-73
2022/01/08 03:11:16;;;;;;;10.40;4.60;;;2.00;99.90;;;;;;5004812;28;20031;-74
2022/01/08 03:13:42;;;;;;;13.27;4.63;;;2.00;99.90;;;;;;5004820;28;20022;-74
2022/01/08 03:16:08;;;;;;;9.38;3.97;;;2.00;99.90;;;;;;5003182;28;20033;-74
2022/01/08 03:18:36;;;;;;;21.52;5.07;;;2.00;99.90;;;;;;5003190;28;20037;-73
2022/01/08 03:21:12;;;;;;;9.70;4.38;;;1.90;99.90;;;;;;5004844;28;20090;-72
2022/01/08 03:23:46;;;;;;;9.80;4.35;;;1.90;99.90;;;;;;5004243;28;20566;-72
2022/01/08 03:26:12;;;;;;;11.18;4.88;;;1.90;99.90;;;;;;5005128;28;20057;-71
2022/01/08 03:28:37;;;;;;;11.50;4.70;;;1.80;99.90;;;;;;5004463;28;20026;-72
2022/01/08 03:31:03;;;;;;;10.00;4.22;;;1.80;99.90;;;;;;5002910;28;20034;-71
2022/01/08 03:33:29;;;;;;;13.10;5.25;;;1.80;99.90;;;;;;5004437;28;20050;-71
2022/01/08 03:35:55;;;;;;;8.63;4.05;;;1.80;99.90;;;;;;5005387;28;20027;-72
2022/01/08 03:38:20;;;;;;;22.85;4.63;;;1.70;99.90;;;;;;5008012;28;20078;-73
2022/01/08 03:40:46;;;;;;;15.85;6.03;;;1.70;99.90;;;;;;5008121;28;20026;-74
2022/01/08 03:43:13;;;;;;;11.38;4.78;;;1.70;99.90;;;;;;5022886;28;20026;-75
2022/01/08 03:45:39;;;;;;;13.95;4.75;;;1.70;99.90;;;;;;5007606;28;20034;-74
2022/01/08 03:48:26;;;;;;;10.10;4.72;;;1.60;99.90;;;;;;5023038;28;20026;-73
2022/01/08 03:50:52;;;;;;;10.30;4.70;;;1.60;99.90;;;;;;5007244;28;20054;-74
2022/01/08 03:53:19;;;;;;;13.45;5.00;;;1.60;99.90;;;;;;5007998;28;20471;-74
2022/01/08 03:55:45;;;;;;;16.52;4.53;;;1.70;99.90;;;;;;5008166;28;20031;-75
2022/01/08 03:58:12;;;;;;;13.27;4.75;;;1.70;99.90;;;;;;5007711;28;20041;-73
2022/01/08 04:00:38;;;;;;;9.60;3.95;;;1.70;99.90;;;;;;5006490;28;20062;-74
2022/01/08 04:03:03;;;;;;;8.27;3.50;;;1.80;99.90;;;;;;5007760;28;20030;-73
2022/01/08 04:05:29;;;;;;;9.48;4.47;;;1.80;99.90;;;;;;5007307;28;20133;-73
2022/01/08 04:07:55;;;;;;;13.48;5.32;;;1.80;99.90;;;;;;5007569;28;20106;-74
2022/01/08 04:10:21;;;;;;;6.25;3.20;;;1.80;99.90;;;;;;5006062;28;20163;-75
2022/01/08 04:12:55;;;;;;;13.48;5.05;;;1.80;99.90;;;;;;5007648;28;20445;-75
2022/01/08 04:17:51;;;;;;;13.25;4.95;;;1.90;99.90;;;;;;5006885;28;20057;-74
2022/01/08 04:20:17;;;;;;;12.45;5.03;;;2.00;99.90;;;;;;5005998;28;20037;-74
2022/01/08 04:22:48;;;;;;;12.15;4.38;;;1.90;99.90;;;;;;5006380;28;20037;-75
2022/01/08 04:25:16;;;;;;;17.15;4.82;;;1.90;99.90;;;;;;5007539;28;20030;-75
2022/01/08 04:27:42;;;;;;;10.23;4.85;;;1.90;99.90;;;;;;5007053;28;20027;-74
2022/01/08 04:30:08;;;;;;;8.13;3.53;;;2.00;99.90;;;;;;5007675;28;20073;-74
2022/01/08 04:32:33;;;;;;;9.23;4.15;;;2.00;99.90;;;;;;5007178;28;20443;-74
2022/01/08 04:34:59;;;;;;;12.68;4.38;;;2.00;99.90;;;;;;5005275;28;20069;-74
2022/01/08 04:37:25;;;;;;;14.68;4.80;;;2.00;99.90;;;;;;5007159;28;20042;-75
2022/01/08 04:39:50;;;;;;;14.23;5.53;;;2.00;99.90;;;;;;5007001;28;20122;-74
2022/01/08 04:42:18;;;;;;;15.60;4.88;;;2.00;99.90;;;;;;5006454;28;20110;-74
2022/01/08 04:44:46;;;;;;;9.75;4.13;;;2.00;99.90;;;;;;5007423;28;20038;-73
2022/01/08 04:47:11;;;;;;;11.15;4.53;;;2.00;99.90;;;;;;5015009;28;20041;-73
2022/01/08 04:49:37;;;;;;;12.57;5.68;;;2.00;99.90;;;;;;5006245;28;20117;-73
2022/01/08 04:52:03;;;;;;;13.23;5.03;;;2.00;99.90;;;;;;5024963;28;20053;-73
2022/01/08 04:54:29;;;;;;;10.88;4.70;;;2.00;99.90;;;;;;5025938;28;20068;-74
2022/01/08 04:56:54;;;;;;;16.88;5.07;;;2.00;99.90;;;;;;5026037;28;20041;-73
2022/01/08 04:59:20;;;;;;;10.52;4.20;;;2.00;99.90;;;;;;5026278;28;20022;-74
2022/01/08 05:01:46;;;;;;;8.85;3.63;;;2.00;99.90;;;;;;5025438;28;20036;-74
2022/01/08 05:04:13;;;;;;;14.38;5.65;;;2.00;99.90;;;;;;5026326;28;20057;-74
2022/01/08 05:06:39;;;;;;;12.98;4.90;;;2.00;99.90;;;;;;5026648;28;20030;-73
2022/01/08 05:09:05;;;;;;;15.60;4.95;;;1.90;99.90;;;;;;5025652;28;20034;-74
2022/01/08 05:11:31;;;;;;;11.07;4.47;;;2.00;99.90;;;;;;5026028;28;20022;-74
2022/01/08 05:13:57;;;;;;;13.60;5.22;;;2.00;99.90;;;;;;5025522;28;20046;-73
2022/01/08 05:16:26;;;;;;;11.20;4.55;;;2.00;99.90;;;;;;5025932;28;20052;-74
2022/01/08 05:18:54;;;;;;;16.33;5.43;;;2.00;99.90;;;;;;5024727;28;20396;-74
2022/01/08 05:21:26;;;;;;;12.25;5.47;;;2.00;99.90;;;;;;5025270;28;20029;-74
2022/01/08 05:23:56;;;;;;;11.23;5.13;;;2.00;99.90;;;;;;5025628;28;20026;-74
2022/01/08 05:26:24;;;;;;;17.23;5.90;;;2.00;99.90;;;;;;5025982;28;20022;-74
2022/01/08 05:28:49;;;;;;;17.00;5.70;;;2.00;99.90;;;;;;5025366;28;20022;-74
2022/01/08 05:31:17;;;;;;;12.30;5.43;;;2.00;99.90;;;;;;5024358;28;20032;-74
2022/01/08 05:33:44;;;;;;;15.13;6.30;;;2.00;99.90;;;;;;5025567;28;20447;-74
2022/01/08 05:36:10;;;;;;;11.02;4.85;;;2.00;99.90;;;;;;5025123;28;20117;-74
2022/01/08 05:38:36;;;;;;;18.40;5.35;;;1.90;99.90;;;;;;5025816;28;20026;-73
2022/01/08 05:41:02;;;;;;;13.95;6.45;;;2.00;99.90;;;;;;5024233;28;20045;-74
2022/01/08 05:43:28;;;;;;;14.57;5.40;;;2.00;99.90;;;;;;5025309;28;20029;-73
2022/01/08 05:45:53;;;;;;;12.70;5.85;;;1.90;99.90;;;;;;5025262;28;20018;-73
2022/01/08 05:48:21;;;;;;;9.50;4.65;;;2.00;99.90;;;;;;5025667;28;20493;-74
2022/01/08 05:50:48;;;;;;;13.38;4.07;;;1.90;99.90;;;;;;5023157;28;20080;-75
2022/01/08 05:53:15;;;;;;;12.35;5.20;;;1.90;99.90;;;;;;5024465;28;20022;-75
2022/01/08 05:55:42;;;;;;;13.43;5.28;;;1.90;99.90;;;;;;5025200;28;20030;-74
2022/01/08 05:58:08;;;;;;;13.63;5.63;;;1.90;99.90;;;;;;5025210;28;20165;-74
2022/01/08 06:00:33;;;;;;;10.32;4.88;;;1.90;99.90;;;;;;5023817;28;20030;-74
2022/01/08 06:02:59;;;;;;;13.30;5.32;;;1.90;99.90;;;;;;5023597;28;20022;-74
2022/01/08 06:05:25;;;;;;;11.27;5.43;;;1.90;99.90;;;;;;5024712;28;20611;-75
2022/01/08 06:07:50;;;;;;;14.13;4.97;;;1.90;99.90;;;;;;5017545;28;20030;-73
2022/01/08 06:10:16;;;;;;;8.60;3.15;;;1.90;99.90;;;;;;5025291;28;20026;-74
2022/01/08 06:12:42;;;;;;;14.85;5.15;;;1.90;99.90;;;;;;5022718;28;20040;-72
2022/01/08 06:15:08;;;;;;;12.25;5.00;;;1.90;99.90;;;;;;5005184;28;20434;-72
2022/01/08 06:17:34;;;;;;;10.18;5.32;;;1.90;99.90;;;;;;5004993;28;20536;-72
2022/01/08 06:20:00;;;;;;;9.13;4.80;;;1.90;99.90;;;;;;5004846;28;20078;-71
2022/01/08 06:22:25;;;;;;;12.00;5.05;;;1.90;99.90;;;;;;5004879;28;20053;-73
2022/01/08 06:24:51;;;;;;;13.23;5.45;;;1.90;99.90;;;;;;5022811;28;20037;-73
2022/01/08 06:27:17;;;;;;;13.18;5.80;;;2.00;99.90;;;;;;5018197;28;20081;-72
2022/01/08 06:29:44;;;;;;;10.45;4.43;;;1.90;99.90;;;;;;5024377;28;20030;-73
2022/01/08 06:32:09;;;;;;;11.57;4.20;;;1.90;99.90;;;;;;5024721;28;20369;-72
2022/01/08 06:34:35;;;;;;;10.50;5.00;;;2.00;99.90;;;;;;5024290;28;20037;-73
2022/01/08 06:37:01;;;;;;;10.40;4.95;;;1.90;99.90;;;;;;5010005;28;20045;-73
2022/01/08 06:39:26;;;;;;;11.07;5.55;;;1.90;99.90;;;;;;5036307;28;20442;-73
2022/01/08 06:41:52;;;;;;;10.85;4.25;;;2.00;99.90;;;;;;5005097;28;20030;-72
2022/01/08 06:44:18;;;;;;;12.40;4.85;;;1.90;99.90;;;;;;5011435;28;20053;-75
2022/01/08 06:46:43;;;;;;;11.00;4.78;;;1.90;99.90;;;;;;5013764;28;20046;-75
2022/01/08 06:49:09;;;;;;;12.05;4.15;;;1.90;99.90;;;;;;5005184;28;20041;-75
2022/01/08 06:51:34;;;;;;;12.40;4.68;;;1.80;99.90;;;;;;5011299;28;20057;-74
2022/01/08 06:54:00;;;;;;;14.40;4.47;;;1.80;99.90;;;;;;5022527;28;20029;-74
2022/01/08 06:56:26;;;;;;;9.38;4.13;;;1.80;99.90;;;;;;5038044;28;20026;-74
2022/01/08 06:58:52;;;;;;;11.70;4.85;;;1.70;99.90;;;;;;5024392;28;20030;-75
2022/01/08 07:01:17;;;;;;;10.55;4.32;;;1.70;99.90;;;;;;5012363;28;20026;-74
2022/01/08 07:03:43;;;;;;;11.38;3.92;;;1.70;99.90;;;;;;5021117;28;20061;-75
2022/01/08 07:06:09;;;;;;;15.55;4.80;;;1.70;99.90;;;;;;5016839;28;20048;-74
2022/01/08 07:08:34;;;;;;;11.45;5.20;;;1.70;99.90;;;;;;5019630;28;20030;-74
2022/01/08 07:11:00;;;;;;;12.82;5.05;;;1.70;99.90;;;;;;5006664;28;20038;-72
2022/01/08 07:13:25;;;;;;;14.90;5.47;;;1.70;99.90;;;;;;5022514;28;20030;-73
2022/01/08 07:15:51;;;;;;;15.18;5.22;;;1.60;99.90;;;;;;5012326;28;20026;-73
2022/01/08 07:18:17;;;;;;;9.73;4.20;;;1.60;99.90;;;;;;5017972;28;20026;-72
2022/01/08 07:20:43;;;;;;;10.15;4.03;;;1.60;99.90;;;;;;5009088;28;20174;-73
2022/01/08 07:23:09;;;;;;;11.13;4.43;;;1.60;99.90;;;;;;5026954;28;20037;-72
2022/01/08 07:25:34;;;;;;;14.65;4.88;;;1.60;99.90;;;;;;5012228;28;20047;-71
2022/01/08 07:28:00;;;;;;;15.63;4.93;;;1.50;99.90;;;;;;5006518;28;20401;-74
2022/01/08 07:30:26;;;;;;;7.18;3.75;;;1.50;99.90;;;;;;5007077;28;20499;-72
2022/01/08 07:32:52;;;;;;;17.58;4.25;;;1.50;99.90;;;;;;5008199;28;20034;-73
2022/01/08 07:35:22;;;;;;;11.13;4.80;;;1.50;99.90;;;;;;5016613;28;20030;-73
2022/01/08 07:37:49;;;;;;;11.50;4.07;;;1.50;99.90;;;;;;5021134;28;20025;-74
2022/01/08 07:40:16;;;;;;;10.98;4.30;;;1.50;99.90;;;;;;5019374;28;20046;-72
2022/01/08 07:42:44;;;;;;;14.60;6.55;;;1.40;99.90;;;;;;5024633;28;20180;-74
2022/01/08 07:45:11;;;;;;;14.23;5.47;;;1.40;99.90;;;;;;5028219;28;20046;-73
2022/01/08 07:47:37;;;;;;;13.68;5.50;;;1.40;99.90;;;;;;5020250;28;20494;-72
2022/01/08 07:50:05;;;;;;;10.52;5.13;;;1.40;99.90;;;;;;5039485;28;20042;-72
2022/01/08 07:52:30;;;;;;;14.98;5.00;;;1.40;99.90;;;;;;5007640;28;20114;-72
2022/01/08 07:54:56;;;;;;;15.80;5.45;;;1.50;99.90;;;;;;5015709;28;20034;-73
2022/01/08 07:57:21;;;;;;;13.70;5.57;;;1.50;99.90;;;;;;5027252;28;20022;-72
2022/01/08 07:59:47;;;;;;;10.52;5.07;;;1.40;99.90;;;;;;5024112;28;20076;-74
2022/01/08 08:02:13;;;;;;;13.27;4.85;;;1.50;99.90;;;;;;5024379;28;20128;-73
2022/01/08 08:04:39;;;;;;;11.82;5.00;;;1.50;99.90;;;;;;5011344;28;20042;-72
2022/01/08 08:07:05;;;;;;;13.38;5.15;;;1.50;99.90;;;;;;5006720;28;20034;-72
2022/01/08 08:09:30;;;;;;;9.35;3.58;;;1.60;99.90;;;;;;5007522;28;20026;-73
2022/01/08 08:11:56;;;;;;;20.30;5.75;;;1.70;99.90;;;;;;5006026;28;20023;-73
2022/01/08 08:14:23;;;;;;;11.52;5.15;;;1.90;99.90;;;;;;5008023;28;20078;-73
2022/01/08 08:16:49;;;;;;;12.07;4.95;;;2.00;99.90;;;;;;5007364;28;20073;-74
2022/01/08 08:19:14;;;;;;;14.98;5.55;;;2.20;99.90;;;;;;5005849;28;20022;-73
2022/01/08 08:21:40;;;;;;;12.52;5.35;;;2.30;99.90;;;;;;5006358;28;20019;-73
2022/01/08 08:24:06;;;;;;;7.47;3.97;;;2.50;99.90;;;;;;5005645;28;20129;-75
2022/01/08 08:26:33;;;;;;;14.02;4.07;;;2.70;99.90;;;;;;5007413;28;20026;-73
2022/01/08 08:28:58;;;;;;;17.02;5.38;;;2.90;99.90;;;;;;5017642;28;20122;-73
2022/01/08 08:31:24;;;;;;;9.80;3.85;;;3.10;99.90;;;;;;5005382;28;20058;-73
2022/01/08 08:33:54;;;;;;;8.30;4.03;;;3.10;99.90;;;;;;5005903;28;20028;-74
2022/01/08 08:36:20;;;;;;;11.57;4.75;;;3.30;99.90;;;;;;5005839;28;20064;-73
2022/01/08 08:38:46;;;;;;;11.70;3.72;;;3.50;99.90;;;;;;5008049;28;20135;-73
2022/01/08 08:41:12;;;;;;;8.60;4.75;;;3.70;99.90;;;;;;5008866;28;20134;-74
2022/01/08 08:43:38;;;;;;;10.73;4.05;;;3.90;99.90;;;;;;5022944;28;20090;-73
2022/01/08 08:46:04;;;;;;;11.23;4.38;;;4.00;99.90;;;;;;5019391;28;20018;-73
2022/01/08 08:48:29;;;;;;;7.55;3.25;;;4.10;99.90;;;;;;5027412;28;20088;-75
2022/01/08 08:50:55;;;;;;;7.95;3.65;;;4.40;99.90;;;;;;5023916;28;20038;-76
2022/01/08 08:53:21;;;;;;;7.68;3.63;;;4.40;99.90;;;;;;5015302;28;20030;-75
2022/01/08 08:55:48;;;;;;;10.90;4.20;;;4.30;99.90;;;;;;5017270;28;20482;-76
2022/01/08 08:58:15;;;;;;;13.23;5.10;;;4.30;99.90;;;;;;5017871;28;20097;-75
2022/01/08 09:00:41;;;;;;;13.05;4.10;;;4.40;99.90;;;;;;5026034;28;20050;-74
2022/01/08 09:03:08;;;;;;;12.45;4.43;;;4.40;99.90;;;;;;5018308;28;20029;-75
2022/01/08 09:05:33;;;;;;;7.88;3.88;;;4.30;99.90;;;;;;5020468;28;20049;-74
2022/01/08 09:07:59;;;;;;;13.45;4.13;;;4.20;99.90;;;;;;5023979;28;20030;-74
2022/01/08 09:10:25;;;;;;;13.88;4.13;;;4.10;99.90;;;;;;5018235;28;20041;-76
2022/01/08 09:12:53;;;;;;;14.77;4.40;;;4.10;99.90;;;;;;5014225;28;20045;-75
2022/01/08 09:15:23;;;;;;;7.97;3.85;;;4.10;99.90;;;;;;5004763;28;20030;-74
2022/01/08 09:17:49;;;;;;;13.95;5.15;;;4.00;99.90;;;;;;5006097;28;20064;-74
2022/01/08 09:20:16;;;;;;;12.50;4.63;;;4.00;99.90;;;;;;5023593;28;20103;-75
2022/01/08 09:22:42;;;;;;;14.20;4.82;;;4.20;99.90;;;;;;5016273;28;20164;-75
2022/01/08 09:25:08;;;;;;;8.80;3.97;;;4.30;99.90;;;;;;5022364;28;20069;-74
2022/01/08 09:27:34;;;;;;;9.38;4.60;;;4.60;99.90;;;;;;5024798;28;20044;-74
2022/01/08 09:30:01;;;;;;;23.20;4.55;;;4.80;99.90;;;;;;5024513;28;20025;-75
2022/01/08 09:32:27;;;;;;;10.95;3.92;;;4.90;99.90;;;;;;5023797;28;20030;-76
2022/01/08 09:34:53;;;;;;;8.23;3.97;;;5.20;99.90;;;;;;5020512;28;20076;-74
2022/01/08 09:37:18;;;;;;;15.25;4.93;;;5.60;99.90;;;;;;5024559;28;20033;-75
2022/01/08 09:39:45;;;;;;;13.27;4.65;;;5.80;99.90;;;;;;5021261;28;20026;-75
2022/01/08 09:42:11;;;;;;;10.27;4.53;;;6.00;99.90;;;;;;5023779;28;20101;-75
2022/01/08 09:44:39;;;;;;;11.88;4.40;;;6.20;99.90;;;;;;5025305;28;20029;-74
2022/01/08 09:47:05;;;;;;;12.43;4.68;;;6.40;99.90;;;;;;5024435;28;20139;-76
2022/01/08 09:49:32;;;;;;;14.95;5.43;;;6.50;99.90;;;;;;5021137;28;20034;-75
2022/01/08 09:51:58;;;;;;;25.52;9.02;;;6.50;99.90;;;;;;5021413;28;20117;-73
2022/01/08 09:54:27;;;;;;;22.45;6.82;;;6.50;99.90;;;;;;5005516;28;20022;-74
2022/01/08 09:56:53;;;;;;;20.90;7.65;;;6.50;99.90;;;;;;5034763;28;20053;-73
2022/01/08 09:59:19;;;;;;;10.02;4.88;;;6.40;99.90;;;;;;5029888;28;20037;-75
2022/01/08 10:01:58;;;;;;;13.55;5.15;;;6.50;99.90;;;;;;5022289;28;20022;-75
2022/01/08 10:04:38;;;;;;;11.15;5.18;;;6.70;99.90;;;;;;5004372;28;20034;-74
2022/01/08 10:07:20;;;;;;;15.40;4.65;;;6.80;99.90;;;;;;5016982;28;20030;-74
2022/01/08 10:10:12;;;;;;;10.15;4.47;;;6.90;99.90;;;;;;5039994;28;20030;-74
2022/01/08 10:12:53;;;;;;;15.00;5.05;;;7.00;99.90;;;;;;5028304;28;20044;-74
2022/01/08 10:18:09;;;;;;;8.48;3.88;;;7.00;99.90;;;;;;5018552;28;20100;-74
2022/01/08 10:20:38;;;;;;;8.98;4.68;;;7.00;99.90;;;;;;5014114;28;20101;-75
2022/01/08 10:23:16;;;;;;;12.18;5.78;;;7.10;99.90;;;;;;5020880;28;20089;-75
2022/01/08 10:26:03;;;;;;;11.60;5.32;;;7.30;99.90;;;;;;5013713;28;20062;-76
2022/01/08 10:28:56;;;;;;;20.13;5.90;;;7.50;99.90;;;;;;5007415;28;20041;-75
2022/01/08 10:31:30;;;;;;;10.13;4.95;;;7.70;99.90;;;;;;5021495;28;20053;-76
2022/01/08 10:34:01;;;;;;;10.15;4.20;;;7.70;99.90;;;;;;5024935;28;20026;-75
2022/01/08 10:36:31;;;;;;;14.27;5.47;;;7.70;99.90;;;;;;5024148;28;20028;-73
2022/01/08 10:38:59;;;;;;;10.07;4.50;;;7.70;99.90;;;;;;5024474;28;20033;-73
2022/01/08 10:41:26;;;;;;;11.32;4.85;;;7.70;99.90;;;;;;5023345;28;20026;-73
2022/01/08 10:44:06;;;;;;;10.07;5.40;;;7.50;99.90;;;;;;5024229;28;20028;-72
2022/01/08 10:46:33;;;;;;;8.15;3.90;;;7.30;99.90;;;;;;5015935;28;20034;-72
2022/01/08 10:48:58;;;;;;;8.43;3.92;;;7.00;99.90;;;;;;5013780;28;20022;-74
2022/01/08 10:51:26;;;;;;;12.18;4.90;;;6.80;99.90;;;;;;5028306;28;20073;-72
2022/01/08 10:53:56;;;;;;;14.60;4.72;;;6.70;99.90;;;;;;5023761;28;20045;-74
2022/01/08 10:56:31;;;;;;;7.63;3.33;;;6.60;99.90;;;;;;5023927;28;20027;-74
2022/01/08 10:58:59;;;;;;;9.45;4.57;;;6.50;99.90;;;;;;5013630;28;20458;-73
2022/01/08 11:01:45;;;;;;;17.13;4.57;;;6.60;99.90;;;;;;5008067;28;20041;-74
2022/01/08 11:04:39;;;;;;;9.55;3.85;;;6.60;99.90;;;;;;5021248;28;20045;-73
2022/01/08 11:07:26;;;;;;;9.57;4.82;;;6.50;99.90;;;;;;5025672;28;20053;-74
2022/01/08 11:09:54;;;;;;;14.70;6.13;;;6.20;99.90;;;;;;5027860;28;20103;-74
2022/01/08 11:12:35;;;;;;;9.15;4.50;;;5.90;99.90;;;;;;5028253;28;20026;-74
2022/01/08 11:17:43;;;;;;;11.35;4.88;;;5.60;99.90;;;;;;5008616;28;20137;-73
2022/01/08 11:20:11;;;;;;;19.40;6.63;;;5.50;99.90;;;;;;5007174;28;20046;-73
2022/01/08 11:22:42;;;;;;;12.63;4.60;;;5.40;99.90;;;;;;5006287;28;20031;-72
2022/01/08 11:25:23;;;;;;;13.57;5.45;;;5.50;99.90;;;;;;5008630;28;20034;-73
2022/01/08 11:28:11;;;;;;;11.25;3.42;;;5.60;99.90;;;;;;5006627;28;20041;-73
2022/01/08 11:30:57;;;;;;;9.20;3.83;;;5.80;99.90;;;;;;5008315;28;20486;-73
2022/01/08 11:33:29;;;;;;;8.63;4.05;;;5.90;99.90;;;;;;5008269;28;20031;-73
2022/01/08 11:35:56;;;;;;;11.25;4.05;;;6.00;99.90;;;;;;5013546;28;20034;-73
2022/01/08 11:38:23;;;;;;;7.22;4.05;;;6.20;99.90;;;;;;5027486;28;20026;-73
2022/01/08 11:40:51;;;;;;;14.20;5.65;;;6.50;99.90;;;;;;5026667;28;20033;-74
2022/01/08 11:43:19;;;;;;;11.23;5.32;;;6.50;99.90;;;;;;5027115;28;20032;-73
2022/01/08 11:45:54;;;;;;;20.67;6.00;;;6.70;99.90;;;;;;5025774;28;20033;-73
2022/01/08 11:48:42;;;;;;;15.48;5.57;;;6.80;99.90;;;;;;5011891;28;20423;-71
2022/01/08 11:51:13;;;;;;;13.77;5.78;;;7.00;99.90;;;;;;5011478;28;20053;-72
2022/01/08 11:53:50;;;;;;;12.38;5.65;;;7.20;99.90;;;;;;5008050;28;20053;-72
2022/01/08 11:56:28;;;;;;;12.18;5.13;;;7.30;99.90;;;;;;5006355;28;20053;-73
2022/01/08 11:59:15;;;;;;;21.65;5.75;;;7.60;99.90;;;;;;5008016;28;20124;-73
2022/01/08 12:02:04;;;;;;;12.15;5.68;;;7.90;99.90;;;;;;5007491;28;20030;-73
2022/01/08 12:04:33;;;;;;;10.07;5.28;;;8.10;99.90;;;;;;5006054;28;20065;-73
2022/01/08 12:07:31;;;;;;;18.65;6.25;;;8.30;99.90;;;;;;5007823;28;20030;-73
2022/01/08 12:10:04;;;;;;;10.98;5.45;;;8.60;99.90;;;;;;5007618;28;20034;-74
2022/01/08 12:12:48;;;;;;;11.43;5.07;;;8.80;99.90;;;;;;5006707;28;20030;-75
2022/01/08 12:15:15;;;;;;;10.93;5.13;;;8.80;99.90;;;;;;5007607;28;20030;-75
2022/01/08 12:17:58;;;;;;;14.40;5.15;;;8.90;99.90;;;;;;5006219;28;20038;-74
2022/01/08 12:20:45;;;;;;;10.27;4.63;;;9.00;99.90;;;;;;5006178;28;20053;-73
2022/01/08 12:23:23;;;;;;;13.15;5.75;;;8.90;99.90;;;;;;5007589;28;20096;-73
2022/01/08 12:25:48;;;;;;;12.15;6.20;;;8.90;99.90;;;;;;5005255;28;20049;-73
2022/01/08 12:28:52;;;;;;;16.45;6.07;;;9.00;99.90;;;;;;5006252;28;20027;-74
2022/01/08 12:31:38;;;;;;;17.40;7.15;;;8.80;99.90;;;;;;5005890;28;20138;-73
2022/01/08 12:34:28;;;;;;;14.40;5.45;;;8.70;99.90;;;;;;5006964;28;20129;-74
2022/01/08 12:36:58;;;;;;;10.43;5.35;;;8.60;99.90;;;;;;5006772;28;20026;-75
2022/01/08 12:39:43;;;;;;;12.30;5.90;;;8.40;99.90;;;;;;5005468;28;20069;-74
2022/01/08 12:42:24;;;;;;;9.48;4.85;;;8.20;99.90;;;;;;5007091;28;20030;-76
2022/01/08 12:45:08;;;;;;;24.90;6.20;;;7.80;99.90;;;;;;5005527;28;20038;-73
2022/01/08 12:47:55;;;;;;;15.73;5.72;;;7.60;99.90;;;;;;5005751;28;20030;-74
2022/01/08 12:50:27;;;;;;;28.10;7.63;;;7.20;99.90;;;;;;5006588;28;20037;-75
2022/01/08 12:53:08;;;;;;;15.95;6.85;;;6.90;99.90;;;;;;5006404;28;20026;-74
2022/01/08 12:55:48;;;;;;;11.52;4.35;;;6.50;99.90;;;;;;5006866;28;20069;-75
2022/01/08 12:58:19;;;;;;;32.28;6.28;;;6.30;99.90;;;;;;5005624;28;20030;-74
2022/01/08 13:01:10;;;;;;;11.13;4.25;;;6.10;99.90;;;;;;5005813;28;20026;-74
2022/01/08 13:03:38;;;;;;;16.88;7.30;;;6.00;99.90;;;;;;5006808;28;20026;-74
2022/01/08 13:06:19;;;;;;;14.32;5.00;;;5.90;99.90;;;;;;5006322;28;20026;-73
2022/01/08 13:08:48;;;;;;;16.45;7.18;;;5.90;99.90;;;;;;5003905;28;20554;-73
2022/01/08 13:11:17;;;;;;;20.35;6.20;;;5.90;99.90;;;;;;5005121;28;20037;-74
2022/01/08 13:13:46;;;;;;;17.88;6.15;;;6.00;99.90;;;;;;5006429;28;20065;-75
2022/01/08 13:16:13;;;;;;;9.25;4.43;;;5.80;99.90;;;;;;5006520;28;20055;-72
2022/01/08 13:18:39;;;;;;;11.45;5.30;;;5.80;99.90;;;;;;5018844;28;20137;-73
2022/01/08 13:21:07;;;;;;;11.02;5.35;;;5.80;99.90;;;;;;5014912;28;20055;-73
2022/01/08 13:23:46;;;;;;;16.35;4.88;;;5.80;99.90;;;;;;5015477;28;20033;-74